Time;durP1;ratioP1;P1;durP2;ratioP2;P2;SDS_P1;SDS_P2;PMS_P1;PMS_P2;Temp;Humidity;BMP_temperature;BMP_pressure;BME280_temperature;BME280_humidity;BME280_pressure;Samples;Min_cycle;Max_cycle;Signal;HPM_P1;HPM_P2
2022/06/18 00:01:51;;;;;;;2.83;2.13;;;25.50;41.90;;;;;;5070967;27;20448;-89
2022/06/18 00:04:20;;;;;;;2.40;2.20;;;25.40;42.10;;;;;;5056149;28;20479;-89
2022/06/18 00:06:54;;;;;;;2.70;2.50;;;25.30;42.10;;;;;;5103590;27;20447;-93
2022/06/18 00:09:24;;;;;;;2.23;2.13;;;25.30;42.30;;;;;;5067169;27;20478;-90
2022/06/18 00:14:39;;;;;;;1.87;1.77;;;25.20;42.20;;;;;;5099797;27;20961;-90
2022/06/18 00:17:12;;;;;;;2.80;2.23;;;25.20;42.40;;;;;;5089168;27;20463;-90
2022/06/18 00:19:39;;;;;;;2.57;2.10;;;25.10;42.40;;;;;;5070017;27;20432;-90
2022/06/18 00:22:09;;;;;;;4.30;3.90;;;25.00;42.50;;;;;;5086299;28;20451;-88
2022/06/18 00:24:36;;;;;;;2.20;2.10;;;25.00;42.70;;;;;;5090413;27;20453;-88
2022/06/18 00:27:04;;;;;;;2.27;2.07;;;25.00;42.70;;;;;;5067632;27;20459;-88
2022/06/18 00:29:30;;;;;;;3.03;2.53;;;25.00;43.10;;;;;;5069668;28;20452;-89
2022/06/18 00:31:57;;;;;;;2.60;2.27;;;25.00;43.10;;;;;;5070476;28;20530;-89
2022/06/18 00:34:24;;;;;;;2.23;2.03;;;24.90;43.30;;;;;;5086307;28;20438;-90
2022/06/18 00:36:52;;;;;;;2.57;2.37;;;24.80;43.40;;;;;;5104080;27;20479;-88
2022/06/18 00:39:21;;;;;;;2.90;2.10;;;24.70;43.60;;;;;;5068381;28;20612;-89
2022/06/18 00:41:52;;;;;;;4.50;2.33;;;24.70;43.70;;;;;;5069040;28;20541;-90
2022/06/18 00:44:26;;;;;;;3.60;2.10;;;24.70;43.90;;;;;;5055917;28;20998;-90
2022/06/18 00:47:07;;;;;;;2.13;2.03;;;24.60;44.50;;;;;;5079572;28;20465;-90
2022/06/18 00:49:40;;;;;;;4.33;2.33;;;24.60;44.70;;;;;;5068759;28;20543;-89
2022/06/18 00:52:15;;;;;;;2.30;2.10;;;24.50;44.40;;;;;;5083000;27;20446;-89
2022/06/18 00:54:49;;;;;;;2.40;2.20;;;24.60;44.30;;;;;;5075299;28;20450;-91
2022/06/18 00:57:28;;;;;;;2.50;2.07;;;24.50;44.10;;;;;;5054628;27;20499;-90
2022/06/18 01:00:05;;;;;;;2.63;2.43;;;24.50;44.00;;;;;;5067947;27;20981;-90
2022/06/18 01:02:36;;;;;;;2.03;1.90;;;24.40;44.10;;;;;;5079158;28;20956;-91
2022/06/18 01:05:14;;;;;;;2.30;2.20;;;24.40;44.30;;;;;;5097038;27;20466;-90
2022/06/18 01:07:42;;;;;;;2.40;2.20;;;24.30;44.40;;;;;;5085914;28;20474;-89
2022/06/18 01:10:20;;;;;;;2.60;2.40;;;24.30;44.70;;;;;;5075430;28;20451;-88
2022/06/18 01:12:48;;;;;;;3.23;2.50;;;24.30;45.00;;;;;;5053968;28;20443;-88
2022/06/18 01:15:20;;;;;;;3.60;1.93;;;24.30;45.50;;;;;;5053992;27;20964;-91
2022/06/18 01:17:51;;;;;;;2.30;2.20;;;24.20;45.70;;;;;;5071513;28;20463;-89
2022/06/18 01:20:19;;;;;;;2.40;2.30;;;24.20;46.10;;;;;;5103173;27;20452;-89
2022/06/18 01:22:54;;;;;;;3.10;2.37;;;24.20;46.30;;;;;;5085623;28;20958;-91
2022/06/18 01:25:24;;;;;;;2.37;2.20;;;24.10;46.60;;;;;;5104834;27;20535;-89
2022/06/18 01:27:53;;;;;;;2.33;2.13;;;24.10;47.00;;;;;;5060584;27;20469;-90
2022/06/18 01:30:40;;;;;;;2.70;2.50;;;24.10;47.20;;;;;;5075968;27;20461;-89
2022/06/18 01:33:12;;;;;;;2.60;2.40;;;24.00;47.60;;;;;;5074916;27;20449;-90
2022/06/18 01:35:45;;;;;;;2.70;2.50;;;24.00;47.50;;;;;;5050724;28;20539;-92
2022/06/18 01:38:18;;;;;;;2.73;2.20;;;24.00;47.60;;;;;;5069021;28;20478;-89
2022/06/18 01:40:54;;;;;;;2.77;2.57;;;23.90;47.90;;;;;;5061788;27;20450;-89
2022/06/18 01:43:23;;;;;;;3.83;2.67;;;23.90;47.30;;;;;;5066654;28;20958;-89
2022/06/18 01:45:56;;;;;;;2.83;2.37;;;23.80;46.90;;;;;;5086987;28;21090;-90
2022/06/18 01:48:26;;;;;;;3.23;2.93;;;23.80;46.80;;;;;;5072340;28;20458;-89
2022/06/18 01:51:00;;;;;;;2.63;2.43;;;23.70;47.00;;;;;;5084746;28;20722;-89
2022/06/18 01:53:32;;;;;;;4.03;2.47;;;23.70;46.90;;;;;;5100853;28;20446;-91
2022/06/18 01:56:07;;;;;;;4.57;2.50;;;23.70;47.10;;;;;;5070095;28;20448;-90
2022/06/18 01:58:41;;;;;;;2.53;2.33;;;23.60;46.10;;;;;;5082036;28;20508;-90
2022/06/18 02:01:19;;;;;;;3.90;2.90;;;23.60;45.90;;;;;;5103202;28;20969;-92
2022/06/18 02:03:47;;;;;;;2.60;2.50;;;23.60;45.90;;;;;;5099358;28;20542;-89
2022/06/18 02:06:14;;;;;;;5.33;2.30;;;23.50;45.90;;;;;;5085843;28;20844;-89
2022/06/18 02:08:41;;;;;;;2.30;2.10;;;23.50;46.00;;;;;;5102535;28;20467;-90
2022/06/18 02:11:14;;;;;;;2.70;2.50;;;23.50;46.00;;;;;;5088290;28;20518;-90
2022/06/18 02:13:44;;;;;;;3.00;2.60;;;23.50;46.20;;;;;;5108343;28;20928;-89
2022/06/18 02:16:20;;;;;;;2.73;2.53;;;23.40;46.50;;;;;;5101473;28;20447;-90
2022/06/18 02:18:49;;;;;;;4.27;2.40;;;23.30;47.30;;;;;;5102872;28;20475;-91
2022/06/18 02:21:23;;;;;;;2.30;2.20;;;23.20;47.30;;;;;;5078261;28;20435;-90
2022/06/18 02:23:52;;;;;;;2.73;2.53;;;23.20;47.20;;;;;;5085782;28;20450;-91
2022/06/18 02:26:22;;;;;;;2.47;2.30;;;23.20;47.20;;;;;;5069472;28;21393;-90
2022/06/18 02:28:52;;;;;;;3.20;2.43;;;23.20;47.10;;;;;;5090367;28;20466;-89
2022/06/18 02:31:24;;;;;;;3.20;2.87;;;23.20;47.20;;;;;;5089414;28;20594;-89
2022/06/18 02:33:54;;;;;;;2.73;2.53;;;23.10;47.40;;;;;;5077379;27;20442;-89
2022/06/18 02:36:23;;;;;;;3.07;2.60;;;23.10;47.50;;;;;;5109016;27;20466;-89
2022/06/18 02:38:56;;;;;;;2.63;2.30;;;23.10;47.50;;;;;;5091994;28;20487;-89
2022/06/18 02:41:25;;;;;;;2.87;2.67;;;23.00;47.60;;;;;;5088349;27;20946;-90
2022/06/18 02:43:53;;;;;;;2.60;2.40;;;23.00;47.80;;;;;;5091095;28;20867;-88
2022/06/18 02:46:21;;;;;;;4.03;2.63;;;22.90;47.80;;;;;;5090969;28;20470;-88
2022/06/18 02:48:48;;;;;;;3.50;2.50;;;22.90;48.00;;;;;;5106189;27;20475;-89
2022/06/18 02:51:15;;;;;;;2.30;2.10;;;22.90;48.10;;;;;;5090876;27;20450;-89
2022/06/18 02:53:42;;;;;;;3.00;2.60;;;22.90;48.10;;;;;;5106902;27;20439;-89
2022/06/18 02:56:14;;;;;;;2.57;2.37;;;22.80;48.00;;;;;;5091920;27;20439;-89
2022/06/18 02:58:45;;;;;;;2.50;2.30;;;22.80;47.90;;;;;;5088744;28;20962;-89
2022/06/18 03:01:15;;;;;;;2.77;2.30;;;22.80;48.50;;;;;;5093769;27;21004;-90
2022/06/18 03:03:47;;;;;;;2.67;2.47;;;22.70;48.40;;;;;;5116030;27;20447;-89
2022/06/18 03:06:16;;;;;;;2.43;2.23;;;22.60;48.40;;;;;;5124494;27;21128;-89
2022/06/18 03:08:46;;;;;;;3.53;3.33;;;22.60;48.40;;;;;;5078271;27;20531;-89
2022/06/18 03:13:59;;;;;;;2.80;2.60;;;22.60;49.00;;;;;;5097873;28;20903;-89
2022/06/18 03:16:29;;;;;;;2.97;2.73;;;22.60;49.10;;;;;;5095346;28;20797;-90
2022/06/18 03:18:58;;;;;;;3.07;2.77;;;22.50;49.50;;;;;;5108976;27;20498;-91
2022/06/18 03:21:31;;;;;;;5.10;2.67;;;22.40;49.10;;;;;;5092306;27;20431;-90
2022/06/18 03:24:00;;;;;;;4.83;3.07;;;22.50;49.10;;;;;;5079702;27;20443;-91
2022/06/18 03:26:27;;;;;;;10.23;3.40;;;22.50;49.00;;;;;;5076900;28;20470;-91
2022/06/18 03:28:57;;;;;;;2.60;2.40;;;22.50;48.80;;;;;;5094123;28;20466;-91
2022/06/18 03:31:25;;;;;;;3.93;2.67;;;22.50;49.00;;;;;;5074649;28;20868;-90
2022/06/18 03:33:53;;;;;;;4.53;2.57;;;22.50;49.10;;;;;;5087527;28;20455;-89
2022/06/18 03:36:22;;;;;;;3.07;2.87;;;22.40;49.00;;;;;;5079336;28;20544;-91
2022/06/18 03:38:49;;;;;;;2.97;2.77;;;22.30;49.10;;;;;;5097306;27;20470;-90
2022/06/18 03:41:18;;;;;;;2.90;2.60;;;22.40;49.10;;;;;;5099990;27;20458;-91
2022/06/18 03:43:45;;;;;;;3.93;3.00;;;22.40;49.30;;;;;;5093889;27;20450;-90
2022/06/18 03:46:15;;;;;;;3.00;2.80;;;22.30;49.30;;;;;;5093076;27;20512;-90
2022/06/18 03:48:48;;;;;;;2.67;2.33;;;22.30;49.40;;;;;;5073690;28;21069;-88
2022/06/18 03:51:18;;;;;;;3.00;2.50;;;22.30;49.60;;;;;;5068688;28;20467;-91
2022/06/18 03:53:46;;;;;;;2.77;2.57;;;22.30;49.70;;;;;;5094983;28;20543;-90
2022/06/18 03:56:20;;;;;;;3.03;2.77;;;22.30;49.40;;;;;;5076140;27;20438;-91
2022/06/18 03:58:49;;;;;;;3.83;2.83;;;22.30;49.10;;;;;;5062405;28;21049;-90
2022/06/18 04:01:24;;;;;;;8.40;3.10;;;22.30;49.00;;;;;;5060986;28;20447;-90
2022/06/18 04:03:52;;;;;;;3.23;3.00;;;22.30;49.30;;;;;;5097437;27;20438;-90
2022/06/18 04:06:28;;;;;;;3.20;2.90;;;22.30;49.40;;;;;;5077101;28;20459;-90
2022/06/18 04:08:55;;;;;;;5.13;3.43;;;22.30;49.50;;;;;;5075208;28;20475;-90
2022/06/18 04:11:25;;;;;;;4.93;3.00;;;22.30;49.50;;;;;;5059824;28;20560;-91
2022/06/18 04:13:54;;;;;;;12.23;3.87;;;22.30;49.60;;;;;;5062565;28;20439;-89
2022/06/18 04:16:36;;;;;;;3.10;2.83;;;22.30;49.60;;;;;;5107628;28;20429;-91
2022/06/18 04:19:14;;;;;;;3.30;3.00;;;22.30;49.70;;;;;;5058587;28;20534;-91
2022/06/18 04:21:42;;;;;;;7.50;2.93;;;22.30;49.80;;;;;;5079890;27;20449;-90
2022/06/18 04:24:10;;;;;;;4.20;2.63;;;22.30;50.10;;;;;;5091791;27;20454;-90
2022/06/18 04:26:42;;;;;;;12.10;4.23;;;22.30;50.30;;;;;;5088798;28;20550;-88
2022/06/18 04:29:09;;;;;;;2.80;2.60;;;22.30;50.20;;;;;;5077264;27;20898;-90
2022/06/18 04:31:37;;;;;;;2.97;2.77;;;22.30;50.20;;;;;;5060212;27;20487;-91
2022/06/18 04:34:04;;;;;;;3.20;2.90;;;22.40;50.20;;;;;;5093464;27;20446;-91
2022/06/18 04:36:43;;;;;;;4.93;3.03;;;22.40;49.90;;;;;;5057823;27;20446;-90
2022/06/18 04:39:16;;;;;;;4.63;2.83;;;22.40;49.90;;;;;;5065336;28;20547;-90
2022/06/18 04:41:59;;;;;;;5.07;2.83;;;22.40;50.00;;;;;;5041556;28;20943;-91
2022/06/18 04:44:28;;;;;;;3.20;2.90;;;22.40;49.80;;;;;;5075510;28;20439;-91
2022/06/18 04:47:13;;;;;;;3.73;2.77;;;22.50;50.00;;;;;;5088357;28;20467;-91
2022/06/18 04:49:41;;;;;;;3.73;2.80;;;22.50;50.20;;;;;;5096580;27;20450;-91
2022/06/18 04:52:12;;;;;;;3.00;2.80;;;22.50;50.00;;;;;;5058469;28;20475;-91
2022/06/18 04:54:47;;;;;;;2.93;2.40;;;22.50;50.20;;;;;;5080026;28;20447;-90
2022/06/18 04:57:15;;;;;;;4.10;2.90;;;22.60;50.10;;;;;;5068965;28;20528;-90
2022/06/18 04:59:42;;;;;;;2.73;2.53;;;22.60;50.20;;;;;;5075840;28;20444;-90
2022/06/18 05:02:20;;;;;;;3.37;3.07;;;22.60;50.00;;;;;;5077037;28;20443;-91
2022/06/18 05:05:00;;;;;;;3.23;3.00;;;22.50;50.00;;;;;;5092417;27;20443;-90
2022/06/18 05:07:48;;;;;;;3.50;3.13;;;22.40;50.40;;;;;;5093646;28;20934;-91
2022/06/18 05:10:41;;;;;;;3.27;2.97;;;22.50;50.40;;;;;;5088405;28;20458;-90
2022/06/18 05:13:15;;;;;;;3.17;2.83;;;22.60;50.50;;;;;;5080854;27;20515;-91
2022/06/18 05:15:53;;;;;;;2.77;2.57;;;22.60;50.40;;;;;;5091398;28;20443;-91
2022/06/18 05:18:22;;;;;;;3.53;3.10;;;22.70;50.30;;;;;;5095859;28;20478;-91
2022/06/18 05:20:54;;;;;;;4.13;3.53;;;22.70;50.20;;;;;;5056577;28;20458;-91
2022/06/18 05:23:27;;;;;;;3.07;2.77;;;22.80;50.00;;;;;;5079752;27;20501;-91
2022/06/18 05:25:58;;;;;;;4.23;2.40;;;22.80;49.90;;;;;;5087743;28;20840;-91
2022/06/18 05:28:25;;;;;;;3.37;3.07;;;22.90;49.90;;;;;;5085246;28;20474;-91
2022/06/18 05:30:53;;;;;;;2.60;2.40;;;23.00;49.70;;;;;;5087885;28;20456;-92
2022/06/18 05:33:21;;;;;;;3.87;2.87;;;23.10;49.70;;;;;;5076387;28;20525;-91
2022/06/18 05:35:51;;;;;;;2.93;2.73;;;23.10;49.30;;;;;;5091905;28;20532;-91
2022/06/18 05:38:21;;;;;;;2.80;2.60;;;23.20;49.50;;;;;;5068062;28;20494;-90
2022/06/18 05:40:50;;;;;;;3.17;2.80;;;23.10;50.00;;;;;;5069960;28;20454;-90
2022/06/18 05:43:17;;;;;;;7.73;2.77;;;23.30;49.10;;;;;;5071675;27;21230;-91
2022/06/18 05:45:45;;;;;;;4.30;2.60;;;23.40;48.90;;;;;;5083331;28;20470;-91
2022/06/18 05:48:13;;;;;;;3.20;2.90;;;23.50;48.90;;;;;;5080600;28;20550;-90
2022/06/18 05:50:40;;;;;;;6.40;3.00;;;23.50;49.40;;;;;;5078997;28;20439;-90
2022/06/18 05:53:09;;;;;;;2.90;2.70;;;23.60;48.60;;;;;;5089873;28;20440;-91
2022/06/18 05:55:57;;;;;;;3.77;3.47;;;23.70;48.70;;;;;;5061876;28;20450;-90
2022/06/18 05:58:39;;;;;;;2.93;2.67;;;23.80;48.20;;;;;;5071285;28;21295;-90
2022/06/18 06:01:23;;;;;;;5.77;2.90;;;23.90;48.50;;;;;;5064598;28;20438;-90
2022/06/18 06:03:51;;;;;;;5.27;3.47;;;24.00;48.10;;;;;;5068997;28;20954;-89
2022/06/18 06:06:18;;;;;;;3.93;3.63;;;24.00;48.10;;;;;;5088753;28;20473;-89
2022/06/18 06:08:47;;;;;;;3.30;3.10;;;24.10;48.30;;;;;;5059707;28;20493;-89
2022/06/18 06:11:30;;;;;;;3.17;2.87;;;24.00;48.30;;;;;;5074326;27;20493;-89
2022/06/18 06:14:00;;;;;;;4.73;3.13;;;23.80;48.90;;;;;;5072834;27;20446;-92
2022/06/18 06:16:27;;;;;;;3.40;3.20;;;23.90;49.10;;;;;;5074636;27;20883;-89
2022/06/18 06:18:54;;;;;;;4.00;3.70;;;24.00;48.90;;;;;;5072681;27;20475;-89
2022/06/18 06:21:21;;;;;;;3.13;2.90;;;23.90;48.90;;;;;;5083733;28;20451;-88
2022/06/18 06:23:49;;;;;;;3.37;3.07;;;24.00;47.60;;;;;;5075977;27;20458;-92
2022/06/18 06:26:21;;;;;;;3.57;3.27;;;24.10;48.60;;;;;;5085645;27;20516;-89
2022/06/18 06:28:48;;;;;;;7.67;2.97;;;24.00;48.90;;;;;;5105895;27;21589;-90
2022/06/18 06:31:15;;;;;;;3.33;2.97;;;24.00;48.80;;;;;;5072773;27;20439;-89
2022/06/18 06:33:42;;;;;;;3.30;3.03;;;24.10;47.90;;;;;;5088266;27;20436;-87
2022/06/18 06:36:11;;;;;;;3.67;3.37;;;24.20;48.30;;;;;;5075642;27;21010;-86
2022/06/18 06:38:39;;;;;;;3.40;3.20;;;24.30;48.40;;;;;;5084428;27;20486;-86
2022/06/18 06:41:07;;;;;;;2.90;2.60;;;24.50;48.40;;;;;;5081168;27;20462;-86
2022/06/18 06:43:35;;;;;;;3.40;3.10;;;24.50;48.10;;;;;;5097630;27;20533;-86
2022/06/18 06:46:02;;;;;;;3.80;3.17;;;24.60;47.80;;;;;;5079872;28;20500;-85
2022/06/18 06:48:29;;;;;;;3.20;2.57;;;24.60;47.90;;;;;;5065214;27;20848;-87
2022/06/18 06:50:56;;;;;;;3.40;3.10;;;24.60;48.30;;;;;;5075883;28;20451;-87
2022/06/18 06:53:23;;;;;;;3.17;2.97;;;24.70;48.40;;;;;;5081359;27;20819;-87
2022/06/18 06:58:36;;;;;;;3.70;3.07;;;24.70;48.90;;;;;;5066892;27;20493;-86
2022/06/18 07:01:03;;;;;;;3.73;2.93;;;24.90;48.10;;;;;;5079212;27;20458;-87
2022/06/18 07:03:33;;;;;;;3.37;3.17;;;25.10;48.10;;;;;;5102606;27;21245;-86
2022/06/18 07:06:02;;;;;;;3.30;2.90;;;25.50;47.80;;;;;;5095384;27;20442;-87
2022/06/18 07:08:30;;;;;;;4.63;3.10;;;25.60;47.10;;;;;;5099701;27;20482;-86
2022/06/18 07:10:57;;;;;;;4.97;4.67;;;25.80;46.80;;;;;;5096241;27;20454;-87
2022/06/18 07:13:24;;;;;;;4.80;3.27;;;25.90;46.60;;;;;;5096558;27;20466;-88
2022/06/18 07:15:53;;;;;;;3.30;2.83;;;25.90;46.30;;;;;;5099104;27;20443;-86
2022/06/18 07:18:23;;;;;;;5.00;2.70;;;26.00;45.90;;;;;;5069226;28;20462;-86
2022/06/18 07:20:53;;;;;;;3.03;2.83;;;26.10;46.00;;;;;;5094263;27;21266;-87
2022/06/18 07:23:20;;;;;;;5.17;2.90;;;26.20;45.80;;;;;;5095973;27;20435;-87
2022/06/18 07:25:47;;;;;;;3.80;3.10;;;26.30;45.50;;;;;;5098238;27;20446;-87
2022/06/18 07:28:14;;;;;;;3.47;3.17;;;26.40;45.30;;;;;;5097516;27;20482;-86
2022/06/18 07:30:41;;;;;;;3.03;2.83;;;26.40;45.30;;;;;;5095457;27;20481;-89
2022/06/18 07:33:12;;;;;;;4.07;3.00;;;26.50;44.90;;;;;;5099999;27;20447;-86
2022/06/18 07:35:39;;;;;;;3.30;3.10;;;26.60;45.20;;;;;;5102073;27;20445;-88
2022/06/18 07:38:06;;;;;;;5.07;3.17;;;26.70;44.70;;;;;;5099855;27;20850;-89
2022/06/18 07:40:35;;;;;;;6.33;3.30;;;27.00;44.50;;;;;;5097731;27;20540;-87
2022/06/18 07:43:04;;;;;;;5.97;2.80;;;27.10;44.40;;;;;;5098749;27;20447;-88
2022/06/18 07:45:31;;;;;;;5.70;3.23;;;27.20;44.30;;;;;;5096719;27;20451;-86
2022/06/18 07:47:58;;;;;;;4.63;2.83;;;27.30;44.80;;;;;;5098065;27;20490;-84
2022/06/18 07:50:26;;;;;;;3.43;3.13;;;27.70;45.00;;;;;;5100951;27;20833;-85
2022/06/18 07:52:53;;;;;;;3.43;3.13;;;28.10;44.40;;;;;;5097585;27;20447;-85
2022/06/18 07:55:24;;;;;;;6.07;2.63;;;28.40;43.00;;;;;;5100830;27;20790;-85
2022/06/18 07:57:51;;;;;;;5.87;2.83;;;28.50;42.20;;;;;;5097496;27;20470;-85
2022/06/18 08:00:20;;;;;;;3.03;2.73;;;28.70;42.90;;;;;;5098154;27;20447;-85
2022/06/18 08:02:48;;;;;;;3.33;2.93;;;28.80;41.80;;;;;;5099892;27;20439;-86
2022/06/18 08:05:22;;;;;;;7.97;3.30;;;28.80;41.90;;;;;;5098608;27;20822;-85
2022/06/18 08:07:50;;;;;;;4.67;2.70;;;28.90;41.90;;;;;;5097511;27;20485;-86
2022/06/18 08:10:18;;;;;;;8.57;2.67;;;29.00;42.00;;;;;;5099246;27;20462;-85
2022/06/18 08:12:46;;;;;;;3.80;2.53;;;29.20;41.30;;;;;;5099166;27;20448;-86
2022/06/18 08:15:13;;;;;;;8.00;2.90;;;29.30;41.40;;;;;;5096866;27;20510;-85
2022/06/18 08:17:40;;;;;;;3.20;2.97;;;29.40;41.40;;;;;;5098142;27;20893;-87
2022/06/18 08:20:09;;;;;;;3.10;2.90;;;29.50;41.30;;;;;;5099123;27;20933;-86
2022/06/18 08:22:39;;;;;;;3.43;3.13;;;29.70;41.00;;;;;;5099572;27;20547;-88
2022/06/18 08:25:10;;;;;;;4.00;2.63;;;29.90;40.90;;;;;;5099094;27;20446;-87
2022/06/18 08:27:38;;;;;;;2.37;2.27;;;30.10;40.50;;;;;;5100015;27;20551;-83
2022/06/18 08:30:07;;;;;;;6.80;2.93;;;30.40;40.70;;;;;;5096853;27;20477;-86
2022/06/18 08:32:33;;;;;;;4.07;3.40;;;30.50;39.60;;;;;;5098431;27;20439;-86
2022/06/18 08:35:01;;;;;;;3.30;3.00;;;30.70;39.50;;;;;;5095688;27;20458;-85
2022/06/18 08:37:28;;;;;;;3.10;2.70;;;30.70;39.00;;;;;;5100637;27;20988;-87
2022/06/18 08:39:56;;;;;;;3.17;2.97;;;30.70;37.80;;;;;;5096126;27;20802;-86
2022/06/18 08:42:41;;;;;;;3.23;2.93;;;30.80;38.50;;;;;;5093825;27;20438;-86
2022/06/18 08:45:32;;;;;;;2.60;2.50;;;31.10;38.60;;;;;;5099200;27;20547;-87
2022/06/18 08:48:20;;;;;;;3.37;2.73;;;31.30;38.30;;;;;;5099502;27;20490;-87
2022/06/18 08:50:57;;;;;;;2.93;2.73;;;31.40;37.30;;;;;;5082026;28;20489;-87
2022/06/18 08:53:51;;;;;;;3.10;2.90;;;31.50;36.40;;;;;;5075078;27;20460;-88
2022/06/18 08:56:26;;;;;;;2.70;2.50;;;31.60;37.40;;;;;;5098313;27;20447;-89
2022/06/18 08:59:02;;;;;;;3.00;2.60;;;31.90;35.90;;;;;;5083202;27;20474;-87
2022/06/18 09:01:33;;;;;;;3.70;2.60;;;32.00;35.40;;;;;;5101667;27;20929;-87
2022/06/18 09:04:13;;;;;;;2.27;2.17;;;32.20;34.50;;;;;;5095596;28;21260;-85
2022/06/18 09:06:58;;;;;;;3.73;2.40;;;32.40;34.20;;;;;;5097144;27;20447;-87
2022/06/18 09:09:35;;;;;;;2.97;2.77;;;32.60;34.40;;;;;;5082285;27;20469;-86
2022/06/18 09:12:08;;;;;;;3.20;2.33;;;32.80;33.40;;;;;;5095009;27;20438;-86
2022/06/18 09:14:44;;;;;;;3.30;2.97;;;32.80;31.40;;;;;;5096632;28;20841;-86
2022/06/18 09:17:18;;;;;;;2.40;2.20;;;33.10;31.20;;;;;;5080465;27;20458;-86
2022/06/18 09:19:53;;;;;;;5.83;2.37;;;33.30;31.10;;;;;;5095966;27;20483;-88
2022/06/18 09:22:21;;;;;;;2.47;2.30;;;33.40;30.90;;;;;;5099089;27;20463;-85
2022/06/18 09:24:52;;;;;;;2.73;2.53;;;33.60;30.00;;;;;;5096441;27;20441;-84
2022/06/18 09:27:23;;;;;;;2.60;2.40;;;33.60;30.30;;;;;;5099105;27;20474;-85
2022/06/18 09:30:00;;;;;;;2.43;2.13;;;33.60;30.30;;;;;;5099395;27;20474;-84
2022/06/18 09:32:32;;;;;;;4.20;2.33;;;33.70;29.80;;;;;;5095277;27;20495;-84
2022/06/18 09:35:04;;;;;;;2.30;2.20;;;33.80;29.80;;;;;;5079678;28;20881;-85
2022/06/18 09:37:36;;;;;;;2.43;2.23;;;33.80;29.20;;;;;;5099612;28;20470;-85
2022/06/18 09:40:06;;;;;;;3.37;2.50;;;34.10;29.10;;;;;;5099969;27;20446;-87
2022/06/18 09:42:37;;;;;;;2.80;2.00;;;34.10;28.00;;;;;;5099948;27;20442;-87
2022/06/18 09:45:12;;;;;;;2.20;2.10;;;34.20;29.40;;;;;;5096073;27;20539;-86
2022/06/18 09:47:41;;;;;;;2.40;2.20;;;34.40;29.30;;;;;;5096499;28;20482;-85
2022/06/18 09:50:19;;;;;;;2.40;2.30;;;34.60;29.00;;;;;;5096870;28;20442;-84
2022/06/18 09:52:51;;;;;;;2.90;2.70;;;34.90;28.80;;;;;;5098192;28;20442;-84
2022/06/18 09:55:22;;;;;;;2.90;2.40;;;35.10;27.80;;;;;;5098374;28;20905;-85
2022/06/18 09:57:53;;;;;;;2.20;2.10;;;35.30;27.90;;;;;;5099035;28;20490;-85
2022/06/18 10:00:25;;;;;;;2.70;2.37;;;35.50;26.90;;;;;;5095500;28;20459;-85
2022/06/18 10:02:57;;;;;;;5.70;2.50;;;35.60;26.80;;;;;;5099202;28;20453;-85
2022/06/18 10:08:12;;;;;;;3.77;2.10;;;35.70;26.20;;;;;;5097459;28;20998;-85
2022/06/18 10:10:47;;;;;;;2.80;2.60;;;35.80;27.10;;;;;;5094530;28;20481;-85
2022/06/18 10:13:18;;;;;;;2.77;2.57;;;36.10;27.10;;;;;;5082056;28;20507;-85
2022/06/18 10:15:47;;;;;;;2.80;2.10;;;36.20;26.60;;;;;;5094830;28;21179;-85
2022/06/18 10:18:38;;;;;;;3.27;1.90;;;36.40;26.20;;;;;;5088835;28;20458;-86
2022/06/18 10:21:14;;;;;;;3.30;2.70;;;36.50;25.60;;;;;;5089264;27;21006;-84
2022/06/18 10:23:54;;;;;;;2.47;2.27;;;36.50;25.70;;;;;;5099155;28;20450;-85
2022/06/18 10:26:34;;;;;;;2.00;1.90;;;36.80;26.30;;;;;;5095871;28;20453;-84
2022/06/18 10:29:11;;;;;;;3.80;2.20;;;36.90;25.40;;;;;;5094738;28;20471;-86
2022/06/18 10:31:50;;;;;;;2.27;2.00;;;37.10;26.10;;;;;;5098164;28;20525;-86
2022/06/18 10:34:38;;;;;;;4.23;2.60;;;37.10;25.70;;;;;;5096297;28;21244;-85
2022/06/18 10:37:14;;;;;;;4.63;2.43;;;37.10;23.90;;;;;;5096979;28;20439;-87
2022/06/18 10:39:51;;;;;;;2.13;1.93;;;37.30;24.00;;;;;;5087962;28;20447;-86
2022/06/18 10:42:31;;;;;;;5.57;2.20;;;37.10;25.10;;;;;;5095616;28;20445;-83
2022/06/18 10:45:10;;;;;;;4.60;2.10;;;37.00;23.60;;;;;;5093755;28;20975;-85
2022/06/18 10:47:43;;;;;;;1.97;1.70;;;37.30;24.10;;;;;;5093947;28;20485;-87
2022/06/18 10:50:12;;;;;;;8.40;2.50;;;37.40;23.30;;;;;;5065582;28;20439;-85
2022/06/18 10:52:40;;;;;;;1.90;1.80;;;37.30;22.20;;;;;;5090134;28;20446;-86
2022/06/18 10:55:14;;;;;;;3.40;2.10;;;37.30;22.80;;;;;;5100664;27;20441;-86
2022/06/18 10:57:41;;;;;;;6.07;3.20;;;37.50;23.00;;;;;;5102746;27;20499;-85
2022/06/18 11:00:12;;;;;;;4.17;2.10;;;37.70;23.30;;;;;;5101083;27;20450;-87
2022/06/18 11:02:41;;;;;;;3.37;1.90;;;37.90;23.00;;;;;;5102727;27;20521;-87
2022/06/18 11:05:19;;;;;;;8.27;2.10;;;38.00;22.10;;;;;;5100248;27;20458;-88
2022/06/18 11:07:49;;;;;;;3.83;2.40;;;38.10;22.50;;;;;;5100808;27;20556;-86
2022/06/18 11:10:32;;;;;;;9.43;2.93;;;38.10;23.10;;;;;;5102382;27;20454;-88
2022/06/18 11:13:01;;;;;;;9.20;3.07;;;38.30;23.10;;;;;;5114840;27;21064;-86
2022/06/18 11:15:31;;;;;;;3.60;2.27;;;38.40;22.00;;;;;;5099981;27;21205;-85
2022/06/18 11:18:00;;;;;;;8.97;2.47;;;38.30;21.20;;;;;;5101000;27;20463;-86
2022/06/18 11:20:30;;;;;;;2.97;2.27;;;38.10;21.50;;;;;;5102157;27;21069;-87
2022/06/18 11:22:58;;;;;;;6.30;1.70;;;37.90;22.10;;;;;;5104435;27;21005;-88
2022/06/18 11:25:31;;;;;;;5.13;2.10;;;38.00;22.70;;;;;;5093799;28;20454;-88
2022/06/18 11:28:00;;;;;;;7.23;2.00;;;38.20;21.60;;;;;;5102198;27;20982;-87
2022/06/18 11:30:32;;;;;;;3.80;2.43;;;38.10;21.40;;;;;;5099749;27;21072;-89
2022/06/18 11:33:02;;;;;;;8.23;2.60;;;38.10;21.50;;;;;;5101822;27;20500;-88
2022/06/18 11:35:33;;;;;;;6.43;2.40;;;38.10;21.00;;;;;;5099189;27;20451;-85
2022/06/18 11:38:02;;;;;;;5.63;2.33;;;38.30;21.80;;;;;;5099540;27;20558;-87
2022/06/18 11:40:30;;;;;;;6.97;2.77;;;38.50;20.90;;;;;;5101128;27;20444;-86
2022/06/18 11:43:00;;;;;;;12.30;3.13;;;38.60;21.10;;;;;;5099299;27;20453;-87
2022/06/18 11:45:39;;;;;;;4.37;2.50;;;38.80;20.40;;;;;;5090283;27;20443;-86
2022/06/18 11:48:19;;;;;;;10.50;2.37;;;38.90;20.80;;;;;;5095214;27;20506;-85
2022/06/18 11:50:53;;;;;;;6.50;2.43;;;38.90;20.90;;;;;;5053060;27;21376;-88
2022/06/18 11:53:27;;;;;;;10.40;2.50;;;38.90;21.00;;;;;;5094462;27;20454;-88
2022/06/18 11:55:58;;;;;;;4.90;2.60;;;39.00;20.70;;;;;;5067026;27;20440;-89
2022/06/18 11:58:32;;;;;;;6.37;2.47;;;38.90;21.00;;;;;;5100082;27;20555;-87
2022/06/18 12:01:05;;;;;;;5.13;2.53;;;39.00;21.10;;;;;;5098627;27;20430;-88
2022/06/18 12:03:39;;;;;;;3.70;2.60;;;39.10;21.40;;;;;;5100560;27;20451;-85
2022/06/18 12:06:13;;;;;;;6.03;3.00;;;39.20;21.00;;;;;;5095565;27;20992;-88
2022/06/18 12:08:42;;;;;;;6.00;2.47;;;39.10;20.90;;;;;;5098836;27;21223;-87
2022/06/18 12:11:26;;;;;;;2.73;2.27;;;39.00;21.00;;;;;;5094545;27;20969;-87
2022/06/18 12:14:01;;;;;;;8.77;3.10;;;39.10;20.80;;;;;;5094512;27;20450;-88
2022/06/18 12:16:37;;;;;;;4.53;2.47;;;39.00;20.80;;;;;;5098592;27;21034;-86
2022/06/18 12:19:13;;;;;;;5.03;2.50;;;39.10;21.40;;;;;;5077738;28;20462;-85
2022/06/18 12:21:46;;;;;;;8.63;3.30;;;39.40;22.50;;;;;;5097933;27;20450;-87
2022/06/18 12:24:25;;;;;;;5.23;2.57;;;39.50;20.90;;;;;;5097347;27;20874;-85
2022/06/18 12:27:00;;;;;;;9.87;2.07;;;39.40;20.20;;;;;;5094705;27;20443;-86
2022/06/18 12:29:43;;;;;;;5.30;2.13;;;39.40;20.50;;;;;;5094706;27;20458;-87
2022/06/18 12:32:19;;;;;;;8.07;2.63;;;39.50;21.10;;;;;;5096193;27;20956;-89
2022/06/18 12:34:58;;;;;;;6.07;2.27;;;39.60;21.00;;;;;;5093440;27;20957;-88
2022/06/18 12:37:34;;;;;;;9.23;2.83;;;39.70;21.90;;;;;;5079535;27;20517;-87
2022/06/18 12:40:14;;;;;;;6.50;3.07;;;39.70;20.90;;;;;;5099241;27;20439;-85
2022/06/18 12:42:49;;;;;;;4.53;2.33;;;39.80;21.20;;;;;;5097987;27;20440;-84
2022/06/18 12:45:32;;;;;;;6.13;3.00;;;39.80;21.50;;;;;;5087190;27;20455;-87
2022/06/18 12:48:08;;;;;;;4.60;2.30;;;39.80;21.00;;;;;;5094585;27;20483;-87
2022/06/18 12:50:45;;;;;;;8.20;3.10;;;39.90;21.60;;;;;;5092758;27;20453;-85
2022/06/18 12:53:30;;;;;;;13.97;3.20;;;40.00;20.50;;;;;;5094469;27;20958;-86
2022/06/18 12:56:05;;;;;;;6.27;2.10;;;39.70;20.00;;;;;;5093181;27;20440;-88
2022/06/18 12:58:42;;;;;;;6.40;2.43;;;39.90;21.50;;;;;;5092135;27;20475;-88
2022/06/18 13:01:20;;;;;;;10.57;3.23;;;40.10;21.00;;;;;;5099269;27;20719;-87
2022/06/18 13:04:11;;;;;;;8.33;2.80;;;39.90;20.10;;;;;;5100497;27;20451;-86
2022/06/18 13:06:50;;;;;;;8.87;3.30;;;40.20;21.10;;;;;;5101325;27;21281;-86
2022/06/18 13:09:30;;;;;;;7.00;3.10;;;40.00;19.80;;;;;;5097708;27;20485;-87
2022/06/18 13:12:11;;;;;;;9.93;2.60;;;39.80;19.90;;;;;;5098529;27;20454;-86
2022/06/18 13:14:57;;;;;;;7.40;2.50;;;40.00;21.10;;;;;;5101670;27;20462;-86
2022/06/18 13:17:29;;;;;;;8.67;2.37;;;40.10;20.90;;;;;;5088186;27;20480;-87
2022/06/18 13:20:02;;;;;;;7.13;3.20;;;40.20;19.70;;;;;;5099604;27;21032;-86
2022/06/18 13:22:31;;;;;;;8.40;2.00;;;40.40;20.10;;;;;;5095206;27;20443;-88